createdAt,value
2023-01-06T00:01:13.725Z,4.40
2023-01-06T00:03:40.697Z,4.40
2023-01-06T00:06:10.949Z,3.17
2023-01-06T00:08:38.277Z,4.00
2023-01-06T00:11:13.324Z,3.88
2023-01-06T00:13:41.485Z,3.50
2023-01-06T00:16:10.984Z,3.97
2023-01-06T00:18:38.547Z,3.30
2023-01-06T00:21:06.825Z,3.53
2023-01-06T00:23:35.355Z,4.45
2023-01-06T00:26:03.768Z,4.18
2023-01-06T00:28:30.877Z,3.67
2023-01-06T00:30:57.982Z,3.88
2023-01-06T00:33:25.583Z,4.00
2023-01-06T00:35:52.757Z,3.28
2023-01-06T00:38:19.985Z,3.20
2023-01-06T00:40:47.157Z,2.95
2023-01-06T00:43:14.202Z,2.97
2023-01-06T00:45:41.304Z,2.35
2023-01-06T00:48:08.487Z,2.97
2023-01-06T00:50:35.565Z,2.95
2023-01-06T00:53:02.691Z,2.45
2023-01-06T00:55:30.088Z,3.72
2023-01-06T00:57:57.097Z,3.45
2023-01-06T01:00:24.167Z,2.70
2023-01-06T01:02:51.176Z,2.45
2023-01-06T01:05:18.347Z,3.00
2023-01-06T01:07:45.416Z,3.00
2023-01-06T01:10:12.830Z,2.20
2023-01-06T01:12:39.860Z,2.15
2023-01-06T01:15:07.334Z,2.25
2023-01-06T01:17:34.334Z,2.00
2023-01-06T01:20:01.431Z,2.15
2023-01-06T01:22:30.276Z,2.50
2023-01-06T01:24:57.809Z,1.98
2023-01-06T01:27:25.136Z,2.20
2023-01-06T01:29:52.164Z,2.25
2023-01-06T01:32:19.162Z,2.47
2023-01-06T01:34:46.112Z,2.05
2023-01-06T01:37:14.316Z,2.25
2023-01-06T01:39:41.289Z,2.97
2023-01-06T01:42:17.144Z,2.08
2023-01-06T01:44:53.799Z,1.67
2023-01-06T01:47:26.541Z,1.85
2023-01-06T01:49:57.578Z,1.77
2023-01-06T01:52:25.506Z,2.47
2023-01-06T01:54:55.298Z,2.03
2023-01-06T01:58:01.645Z,2.30
2023-01-06T02:00:28.947Z,2.50
2023-01-06T02:02:56.860Z,2.20
2023-01-06T02:05:26.061Z,2.15
2023-01-06T02:07:54.932Z,2.25
2023-01-06T02:10:23.331Z,2.65
2023-01-06T02:12:57.352Z,2.08
2023-01-06T02:15:33.144Z,2.08
2023-01-06T02:18:03.464Z,1.80
2023-01-06T02:20:46.546Z,2.60
2023-01-06T02:23:55.536Z,1.70
2023-01-06T02:27:03.095Z,1.80
2023-01-06T02:29:48.493Z,1.70
2023-01-06T02:32:38.684Z,2.08
2023-01-06T02:35:11.776Z,2.85
2023-01-06T02:37:44.598Z,2.42
2023-01-06T02:40:18.121Z,2.13
2023-01-06T02:43:15.328Z,2.37
2023-01-06T02:46:07.530Z,1.80
2023-01-06T02:48:49.731Z,1.90
2023-01-06T02:51:31.462Z,1.83
2023-01-06T02:54:28.326Z,1.73
2023-01-06T02:57:10.896Z,2.05
2023-01-06T02:59:44.518Z,2.08
2023-01-06T03:02:11.976Z,2.15
2023-01-06T03:04:44.874Z,1.50
2023-01-06T03:07:15.790Z,2.08
2023-01-06T03:09:43.891Z,2.03
2023-01-06T03:12:29.058Z,2.15
2023-01-06T03:14:57.190Z,1.75
2023-01-06T03:17:24.996Z,2.30
2023-01-06T03:19:52.486Z,2.08
2023-01-06T03:22:21.021Z,2.15
2023-01-06T03:24:48.854Z,2.03
2023-01-06T03:27:20.099Z,1.77
2023-01-06T03:29:47.603Z,1.95
2023-01-06T03:32:41.584Z,2.67
2023-01-06T03:35:08.562Z,2.20
2023-01-06T03:37:45.802Z,2.80
2023-01-06T03:40:31.831Z,2.08
2023-01-06T03:43:27.799Z,2.15
2023-01-06T03:46:09.510Z,1.88
2023-01-06T03:48:36.444Z,1.95
2023-01-06T03:51:13.278Z,1.60
2023-01-06T03:53:46.266Z,2.28
2023-01-06T03:56:30.949Z,2.10
2023-01-06T03:59:01.758Z,2.17
2023-01-06T04:01:30.006Z,1.85
2023-01-06T04:03:57.332Z,2.40
2023-01-06T04:06:24.393Z,2.10
2023-01-06T04:08:51.421Z,1.85
2023-01-06T04:11:38.308Z,1.73
2023-01-06T04:14:05.341Z,2.35
2023-01-06T04:16:32.518Z,2.10
2023-01-06T04:18:59.541Z,2.13
2023-01-06T04:21:26.686Z,1.92
2023-01-06T04:23:53.727Z,2.22
2023-01-06T04:26:20.784Z,1.73
2023-01-06T04:28:47.763Z,1.75
2023-01-06T04:31:14.844Z,2.60
2023-01-06T04:33:41.985Z,2.83
2023-01-06T04:36:09.352Z,2.10
2023-01-06T04:38:36.484Z,1.75
2023-01-06T04:41:03.649Z,2.20
2023-01-06T04:43:30.728Z,2.15
2023-01-06T04:46:00.822Z,1.73
2023-01-06T04:48:27.920Z,2.28
2023-01-06T04:51:07.158Z,2.10
2023-01-06T04:53:39.716Z,5.90
2023-01-06T04:56:10.130Z,3.78
2023-01-06T04:58:37.600Z,3.35
2023-01-06T05:01:12.757Z,4.22
2023-01-06T05:03:41.107Z,4.47
2023-01-06T05:06:10.626Z,2.55
2023-01-06T05:08:39.950Z,1.95
2023-01-06T05:11:26.448Z,2.30
2023-01-06T05:13:54.595Z,3.58
2023-01-06T05:16:29.124Z,1.95
2023-01-06T05:18:56.796Z,2.15
2023-01-06T05:21:26.506Z,2.40
2023-01-06T05:23:54.487Z,2.03
2023-01-06T05:26:26.875Z,2.80
2023-01-06T05:28:54.052Z,2.35
2023-01-06T05:31:21.172Z,2.80
2023-01-06T05:33:48.283Z,1.83
2023-01-06T05:36:17.307Z,2.80
2023-01-06T05:38:44.360Z,2.20
2023-01-06T05:41:11.801Z,2.40
2023-01-06T05:43:39.026Z,2.78
2023-01-06T05:46:09.024Z,2.00
2023-01-06T05:48:36.927Z,2.00
2023-01-06T05:51:06.694Z,2.13
2023-01-06T05:53:36.495Z,2.28
2023-01-06T05:56:09.152Z,1.80
2023-01-06T05:58:37.614Z,2.10
2023-01-06T06:01:05.124Z,2.42
2023-01-06T06:03:33.089Z,2.33
2023-01-06T06:06:04.927Z,2.38
2023-01-06T06:08:32.524Z,2.03
2023-01-06T06:11:04.909Z,2.05
2023-01-06T06:13:32.718Z,2.55
2023-01-06T06:16:07.159Z,2.88
2023-01-06T06:21:05.107Z,2.47
2023-01-06T06:23:32.554Z,2.50
2023-01-06T06:25:59.574Z,2.15
2023-01-06T06:28:26.594Z,4.13
2023-01-06T06:30:55.526Z,3.55
2023-01-06T06:33:22.607Z,3.42
2023-01-06T06:36:00.072Z,2.25
2023-01-06T06:38:27.709Z,2.75
2023-01-06T06:40:55.174Z,2.00
2023-01-06T06:43:22.240Z,2.60
2023-01-06T06:45:49.492Z,2.58
2023-01-06T06:48:17.423Z,2.72
2023-01-06T06:50:44.514Z,2.30
2023-01-06T06:53:11.560Z,2.28
2023-01-06T06:55:38.641Z,2.63
2023-01-06T06:58:05.624Z,2.25
2023-01-06T07:00:32.787Z,2.70
2023-01-06T07:02:59.787Z,2.42
2023-01-06T07:05:26.839Z,2.10
2023-01-06T07:07:53.849Z,2.72
2023-01-06T07:10:20.803Z,2.25
2023-01-06T07:12:47.827Z,2.40
2023-01-06T07:15:14.807Z,2.20
2023-01-06T07:17:42.135Z,2.53
2023-01-06T07:20:10.037Z,2.10
2023-01-06T07:22:38.965Z,2.13
2023-01-06T07:25:10.083Z,2.63
2023-01-06T07:27:37.498Z,2.47
2023-01-06T07:30:05.639Z,2.17
2023-01-06T07:32:32.927Z,2.13
2023-01-06T07:34:59.902Z,2.28
2023-01-06T07:37:26.864Z,2.72
2023-01-06T07:39:53.898Z,3.08
2023-01-06T07:42:21.586Z,2.40
2023-01-06T07:44:48.616Z,2.47
2023-01-06T07:47:15.603Z,2.70
2023-01-06T07:49:42.603Z,2.22
2023-01-06T07:52:09.620Z,2.50
2023-01-06T07:54:36.628Z,2.25
2023-01-06T07:57:03.890Z,2.80
2023-01-06T07:59:30.904Z,3.13
2023-01-06T08:01:58.024Z,2.38
2023-01-06T08:04:25.068Z,2.58
2023-01-06T08:06:52.106Z,2.55
2023-01-06T08:09:19.169Z,2.55
2023-01-06T08:11:46.184Z,2.90
2023-01-06T08:14:13.191Z,2.63
2023-01-06T08:16:40.393Z,3.00
2023-01-06T08:19:07.401Z,2.45
2023-01-06T08:21:34.362Z,2.28
2023-01-06T08:24:01.419Z,2.55
2023-01-06T08:26:28.464Z,2.88
2023-01-06T08:28:55.423Z,3.30
2023-01-06T08:31:23.036Z,2.92
2023-01-06T08:33:51.728Z,3.13
2023-01-06T08:36:21.062Z,3.00
2023-01-06T08:38:48.916Z,3.03
2023-01-06T08:41:16.014Z,2.88
2023-01-06T08:43:46.070Z,2.72
2023-01-06T08:46:16.663Z,3.00
2023-01-06T08:48:43.934Z,4.10
2023-01-06T08:51:17.202Z,3.30
2023-01-06T08:53:44.601Z,3.83
2023-01-06T08:56:22.968Z,2.75
2023-01-06T08:58:58.706Z,3.90
2023-01-06T09:01:31.351Z,3.72
2023-01-06T09:04:00.333Z,3.38
2023-01-06T09:06:28.277Z,3.38
2023-01-06T09:08:56.882Z,3.38
2023-01-06T09:11:24.655Z,3.40
2023-01-06T09:13:51.742Z,3.78
2023-01-06T09:16:20.205Z,3.25
2023-01-06T09:18:49.930Z,3.67
2023-01-06T09:21:18.993Z,3.63
2023-01-06T09:23:46.684Z,4.10
2023-01-06T09:26:15.305Z,4.28
2023-01-06T09:28:42.625Z,4.90
2023-01-06T09:31:09.840Z,3.95
2023-01-06T09:33:37.083Z,4.88
2023-01-06T09:36:04.414Z,4.53
2023-01-06T09:38:31.501Z,4.05
2023-01-06T09:41:01.203Z,3.58
2023-01-06T09:43:51.123Z,4.13
2023-01-06T09:46:23.661Z,3.70
2023-01-06T09:49:04.992Z,3.63
2023-01-06T09:51:32.916Z,3.40
2023-01-06T09:54:21.156Z,4.13
2023-01-06T09:56:54.809Z,3.67
2023-01-06T09:59:52.308Z,3.95
2023-01-06T10:02:29.387Z,3.90
2023-01-06T10:04:56.403Z,4.65
2023-01-06T10:07:29.381Z,4.70
2023-01-06T10:10:22.001Z,4.13
2023-01-06T10:13:16.571Z,4.72
2023-01-06T10:16:12.851Z,4.83
2023-01-06T10:19:00.996Z,4.88
2023-01-06T10:21:45.070Z,4.25
2023-01-06T10:24:43.567Z,4.78
2023-01-06T10:27:32.414Z,3.80
2023-01-06T10:30:01.600Z,3.95
2023-01-06T10:32:32.584Z,4.60
2023-01-06T10:35:00.496Z,4.60
2023-01-06T10:37:33.327Z,4.70
2023-01-06T10:40:13.682Z,4.38
2023-01-06T10:42:56.446Z,4.97
2023-01-06T10:45:37.037Z,5.22
2023-01-06T10:48:06.279Z,5.15
2023-01-06T10:50:35.003Z,4.63
2023-01-06T10:53:01.998Z,4.88
2023-01-06T10:55:36.911Z,4.55
2023-01-06T10:58:24.879Z,5.30
2023-01-06T11:01:25.052Z,4.57
2023-01-06T11:04:12.810Z,4.18
2023-01-06T11:06:58.878Z,5.38
2023-01-06T11:09:30.732Z,5.07
2023-01-06T11:12:01.332Z,5.40
2023-01-06T11:14:33.699Z,5.32
2023-01-06T11:17:04.100Z,5.63
2023-01-06T11:19:38.338Z,5.45
2023-01-06T11:22:26.723Z,5.97
2023-01-06T11:24:54.934Z,4.85
2023-01-06T11:27:22.097Z,5.28
2023-01-06T11:29:49.038Z,5.68
2023-01-06T11:32:17.325Z,5.82
2023-01-06T11:35:02.803Z,6.05
2023-01-06T11:37:40.369Z,6.32
2023-01-06T11:40:34.978Z,5.80
2023-01-06T11:43:08.646Z,5.53
2023-01-06T11:45:47.098Z,6.00
2023-01-06T11:48:25.301Z,6.85
2023-01-06T11:50:59.200Z,7.22
2023-01-06T11:53:29.530Z,7.07
2023-01-06T11:56:05.178Z,6.97
2023-01-06T11:58:50.645Z,7.63
2023-01-06T12:01:29.489Z,7.13
2023-01-06T12:04:10.880Z,6.95
2023-01-06T12:06:42.757Z,8.02
2023-01-06T12:09:16.685Z,10.70
2023-01-06T12:11:48.018Z,7.25
2023-01-06T12:14:28.375Z,6.85
2023-01-06T12:17:14.070Z,5.93
2023-01-06T12:19:53.793Z,6.07
2023-01-06T12:26:05.516Z,6.78
2023-01-06T12:28:36.897Z,5.78
2023-01-06T12:31:35.578Z,5.75
2023-01-06T12:37:51.169Z,5.95
2023-01-06T12:40:31.388Z,5.70
2023-01-06T12:43:04.085Z,6.13
2023-01-06T12:45:35.018Z,6.50
2023-01-06T12:48:10.737Z,6.35
2023-01-06T12:50:46.006Z,6.90
2023-01-06T12:53:32.681Z,5.70
2023-01-06T12:56:20.433Z,5.65
2023-01-06T12:58:59.632Z,5.65
2023-01-06T13:01:45.938Z,5.57
2023-01-06T13:04:44.149Z,6.40
2023-01-06T13:07:33.801Z,6.90
2023-01-06T13:10:22.834Z,6.30
2023-01-06T13:13:11.424Z,7.93
2023-01-06T13:15:43.411Z,6.72
2023-01-06T13:18:30.596Z,5.47
2023-01-06T13:21:09.375Z,5.43
2023-01-06T13:23:57.513Z,4.80
2023-01-06T13:26:49.108Z,4.97
2023-01-06T13:29:43.610Z,5.10
2023-01-06T13:32:40.116Z,4.90
2023-01-06T13:35:39.027Z,6.13
2023-01-06T13:38:34.488Z,6.38
2023-01-06T13:41:04.309Z,6.65
2023-01-06T13:43:33.547Z,5.93
2023-01-06T13:46:05.792Z,5.55
2023-01-06T13:48:45.701Z,6.50
2023-01-06T13:51:16.008Z,6.68
2023-01-06T13:53:46.104Z,7.30
2023-01-06T13:56:12.998Z,6.13
2023-01-06T13:58:44.755Z,6.72
2023-01-06T14:01:21.113Z,7.05
2023-01-06T14:03:50.132Z,6.43
2023-01-06T14:06:23.049Z,7.13
2023-01-06T14:09:00.951Z,6.70
2023-01-06T14:11:32.667Z,6.07
2023-01-06T14:14:25.450Z,6.57
2023-01-06T14:16:54.537Z,7.35
2023-01-06T14:19:30.169Z,8.02
2023-01-06T14:22:13.789Z,7.85
2023-01-06T14:24:43.997Z,7.68
2023-01-06T14:27:12.671Z,8.30
2023-01-06T14:29:43.105Z,8.43
2023-01-06T14:32:14.484Z,9.32
2023-01-06T14:34:50.344Z,8.35
2023-01-06T14:37:20.005Z,9.20
2023-01-06T14:39:54.261Z,10.10
2023-01-06T14:42:40.014Z,9.23
2023-01-06T14:48:54.018Z,8.20
2023-01-06T14:51:22.358Z,10.13
2023-01-06T14:53:55.884Z,9.50
2023-01-06T14:56:25.502Z,8.97
2023-01-06T14:59:03.749Z,9.93
2023-01-06T15:01:35.689Z,9.95
2023-01-06T15:04:04.518Z,9.43
2023-01-06T15:06:32.441Z,9.75
2023-01-06T15:09:32.246Z,9.75
2023-01-06T15:11:59.270Z,9.25
2023-01-06T15:14:35.011Z,10.30
2023-01-06T15:17:05.799Z,10.38
2023-01-06T15:19:34.664Z,9.82
2023-01-06T15:22:07.913Z,9.80
2023-01-06T15:24:39.605Z,10.27
2023-01-06T15:27:11.184Z,9.55
2023-01-06T15:29:38.487Z,9.75
2023-01-06T15:32:10.214Z,10.93
2023-01-06T15:34:42.833Z,11.85
2023-01-06T15:37:18.483Z,11.63
2023-01-06T15:39:45.986Z,10.82
2023-01-06T15:42:15.395Z,12.88
2023-01-06T15:44:57.696Z,13.15
2023-01-06T15:47:35.292Z,13.70
2023-01-06T15:50:07.755Z,12.30
2023-01-06T15:52:47.488Z,12.55
2023-01-06T15:55:25.615Z,12.98
2023-01-06T15:57:57.731Z,12.23
2023-01-06T16:00:28.385Z,13.02
2023-01-06T16:02:57.051Z,12.65
2023-01-06T16:05:43.486Z,12.82
2023-01-06T16:08:27.299Z,12.23
2023-01-06T16:11:15.638Z,12.57
2023-01-06T16:13:49.092Z,11.93
2023-01-06T16:16:16.185Z,12.05
2023-01-06T16:18:44.464Z,15.48
2023-01-06T16:21:30.470Z,12.93
2023-01-06T16:24:00.351Z,13.88
2023-01-06T16:26:29.989Z,13.32
2023-01-06T16:29:00.499Z,13.68
2023-01-06T16:31:38.326Z,12.98
2023-01-06T16:38:08.497Z,11.52
2023-01-06T16:40:35.489Z,13.07
2023-01-06T16:43:03.671Z,13.68
2023-01-06T16:45:41.968Z,13.35
2023-01-06T16:48:14.199Z,14.10
2023-01-06T16:50:45.442Z,12.27
2023-01-06T16:53:21.073Z,13.05
2023-01-06T16:55:57.863Z,13.48
2023-01-06T16:58:27.887Z,13.05
2023-01-06T17:00:58.439Z,12.90
2023-01-06T17:03:30.374Z,11.98
2023-01-06T17:05:57.970Z,13.40
2023-01-06T17:08:38.936Z,12.93
2023-01-06T17:11:21.478Z,11.90
2023-01-06T17:14:16.058Z,12.10
2023-01-06T17:16:44.600Z,13.07
2023-01-06T17:19:28.851Z,14.25
2023-01-06T17:22:20.579Z,11.88
2023-01-06T17:24:47.659Z,11.80
2023-01-06T17:27:22.361Z,13.15
2023-01-06T17:29:50.590Z,12.40
2023-01-06T17:32:23.673Z,12.25
2023-01-06T17:34:50.861Z,12.90
2023-01-06T17:37:29.967Z,11.82
2023-01-06T17:39:58.814Z,13.52
2023-01-06T17:42:45.412Z,12.65
2023-01-06T17:45:22.232Z,13.32
2023-01-06T17:47:54.187Z,12.73
2023-01-06T17:50:33.025Z,14.07
2023-01-06T17:53:35.691Z,14.10
2023-01-06T17:56:08.923Z,12.70
2023-01-06T17:58:38.696Z,13.13
2023-01-06T18:01:12.333Z,12.75
2023-01-06T18:03:42.989Z,13.32
2023-01-06T18:06:26.420Z,14.75
2023-01-06T18:09:07.647Z,14.20
2023-01-06T18:11:36.683Z,15.88
2023-01-06T18:14:28.773Z,15.43
2023-01-06T18:16:59.146Z,15.75
2023-01-06T18:19:37.720Z,14.43
2023-01-06T18:22:24.795Z,16.00
2023-01-06T18:24:55.403Z,14.90
2023-01-06T18:27:36.947Z,14.50
2023-01-06T18:30:22.529Z,15.93
2023-01-06T18:32:50.934Z,16.67
2023-01-06T18:35:27.901Z,15.95
2023-01-06T18:37:59.324Z,17.58
2023-01-06T18:40:26.430Z,17.10
2023-01-06T18:42:55.652Z,15.43
2023-01-06T18:45:36.555Z,14.80
2023-01-06T18:48:31.998Z,15.35
2023-01-06T18:51:03.997Z,14.45
2023-01-06T18:53:32.345Z,14.60
2023-01-06T18:56:10.127Z,15.90
2023-01-06T18:58:41.498Z,14.40
2023-01-06T19:01:41.244Z,15.73
2023-01-06T19:04:33.069Z,13.63
2023-01-06T19:07:26.280Z,14.27
2023-01-06T19:09:53.653Z,12.88
2023-01-06T19:12:26.675Z,14.13
2023-01-06T19:14:54.146Z,13.55
2023-01-06T19:17:31.655Z,13.25
2023-01-06T19:20:01.610Z,15.27
2023-01-06T19:22:34.435Z,15.65
2023-01-06T19:25:15.987Z,15.70
2023-01-06T19:27:47.022Z,15.50
2023-01-06T19:30:14.003Z,15.10
2023-01-06T19:32:41.081Z,16.23
2023-01-06T19:35:24.698Z,16.27
2023-01-06T19:38:06.990Z,14.98
2023-01-06T19:40:41.498Z,15.30
2023-01-06T19:45:43.611Z,14.80
2023-01-06T19:48:25.076Z,15.82
2023-01-06T19:51:01.922Z,14.80
2023-01-06T19:53:31.648Z,14.77
2023-01-06T19:56:21.497Z,15.52
2023-01-06T19:58:54.921Z,14.07
2023-01-06T20:01:22.369Z,14.82
2023-01-06T20:03:50.620Z,16.65
2023-01-06T20:06:17.669Z,14.40
2023-01-06T20:08:44.765Z,15.20
2023-01-06T20:11:12.631Z,14.82
2023-01-06T20:13:39.625Z,16.23
2023-01-06T20:16:07.170Z,15.23
2023-01-06T20:18:34.174Z,14.75
2023-01-06T20:21:01.257Z,13.10
2023-01-06T20:27:15.712Z,13.45
2023-01-06T20:29:42.680Z,14.10
2023-01-06T20:32:09.766Z,15.50
2023-01-06T20:34:37.058Z,13.65
2023-01-06T20:37:04.135Z,14.68
2023-01-06T20:39:31.213Z,14.32
2023-01-06T20:41:58.255Z,14.80
2023-01-06T20:44:25.261Z,15.65
2023-01-06T20:46:53.075Z,15.13
2023-01-06T20:49:20.634Z,14.75
2023-01-06T20:51:47.573Z,16.85
2023-01-06T20:58:01.942Z,14.30
2023-01-06T21:00:29.179Z,15.00
2023-01-06T21:02:56.254Z,15.05
2023-01-06T21:05:23.210Z,14.82
2023-01-06T21:07:50.149Z,16.60
2023-01-06T21:10:17.275Z,14.88
2023-01-06T21:12:44.269Z,14.48
2023-01-06T21:18:58.749Z,15.48
2023-01-06T21:21:25.749Z,14.75
2023-01-06T21:23:52.741Z,15.20
2023-01-06T21:26:19.666Z,16.30
2023-01-06T21:28:46.635Z,16.25
2023-01-06T21:31:13.662Z,16.27
2023-01-06T21:33:40.651Z,14.85
2023-01-06T21:36:07.969Z,17.50
2023-01-06T21:38:34.926Z,16.90
2023-01-06T21:41:20.157Z,17.17
2023-01-06T21:43:47.111Z,17.45
2023-01-06T21:46:14.172Z,16.50
2023-01-06T21:48:41.161Z,18.55
2023-01-06T21:51:08.920Z,17.50
2023-01-06T21:53:35.993Z,18.17
2023-01-06T21:56:03.054Z,16.80
2023-01-06T21:58:30.022Z,16.60
2023-01-06T22:00:56.987Z,18.30
2023-01-06T22:03:23.989Z,18.40
2023-01-06T22:05:51.267Z,17.92
2023-01-06T22:08:18.377Z,18.23
2023-01-06T22:10:45.691Z,17.10
2023-01-06T22:13:16.024Z,17.73
2023-01-06T22:15:43.586Z,16.50
2023-01-06T22:18:11.241Z,16.40
2023-01-06T22:20:38.959Z,17.30
2023-01-06T22:23:11.890Z,16.02
2023-01-06T22:25:39.018Z,16.02
2023-01-06T22:28:05.995Z,15.88
2023-01-06T22:30:33.057Z,15.02
2023-01-06T22:33:00.099Z,14.98
2023-01-06T22:35:27.436Z,14.30
2023-01-06T22:37:54.629Z,15.32
2023-01-06T22:40:21.906Z,16.20
2023-01-06T22:42:48.810Z,15.20
2023-01-06T22:45:15.941Z,15.45
2023-01-06T22:47:42.923Z,13.95
2023-01-06T22:50:11.082Z,16.60
2023-01-06T22:52:38.005Z,13.15
2023-01-06T22:55:05.611Z,14.88
2023-01-06T22:57:32.687Z,12.60
2023-01-06T23:00:00.329Z,14.38
2023-01-06T23:02:27.392Z,12.63
2023-01-06T23:04:54.471Z,12.90
2023-01-06T23:07:21.664Z,14.13
2023-01-06T23:09:48.626Z,12.93
2023-01-06T23:12:15.618Z,11.20
2023-01-06T23:14:42.525Z,15.48
2023-01-06T23:17:11.891Z,12.70
2023-01-06T23:19:38.936Z,14.73
2023-01-06T23:22:05.903Z,17.63
2023-01-06T23:24:33.419Z,14.18
2023-01-06T23:27:01.025Z,12.10
2023-01-06T23:29:28.012Z,13.02
2023-01-06T23:31:55.045Z,16.90
2023-01-06T23:34:22.010Z,24.83
2023-01-06T23:36:48.964Z,18.02
2023-01-06T23:39:19.475Z,14.68
2023-01-06T23:41:46.691Z,10.68
2023-01-06T23:44:18.497Z,10.95
2023-01-06T23:46:46.496Z,13.13
2023-01-06T23:49:16.506Z,11.50
2023-01-06T23:51:44.101Z,11.27
2023-01-06T23:54:12.347Z,12.30
2023-01-06T23:56:40.049Z,10.23
2023-01-06T23:59:08.431Z,9.57
